Flight Track Log - Related Links

Times and Time Zones

All times are in EDT time to prevent confusion due to time zone crossing. See the LXJ609 flight status page for this flight to view local times or setup timezone preferences in your user account.

Time Position Orientation Groundspeed Altitude Reporting Facility
EDT Latitude Longitude Course Direction KTS MPH feet Rate Location/Type
Fri 02:02:40 PM 40.6000 -73.4667 201° Southwest 252 290 3,100  Level New York TRACON
Fri 02:03:40 PM 40.5333 -73.5167 210° Southwest 261 300 3,100  Level New York TRACON
Fri 02:04:40 PM 40.4833 -73.5833 225° Southwest 255 293 3,100  Level New York TRACON
Fri 02:05:40 PM 40.4333 -73.6500 225° Southwest 248 285 3,100  Level New York TRACON
Fri 02:06:40 PM 40.3833 -73.7167 225° Southwest 255 293 3,100  Level New York TRACON
Fri 02:07:00 PM 40.5556 -73.8101 208° Southwest  Level FlightAware Approximate
Fri 02:07:40 PM 40.3167 -73.7500 201° Southwest 263 303 3,100  Level New York TRACON
Fri 02:09:00 PM 40.3912 -73.7931 336° Northwest  Level Estimated
Fri 02:14:22 PM 40.1333 -74.2667 65° Northeast 270 311 4,100  Level New York TRACON
Fri 02:15:22 PM 40.1667 -74.3667 294° West 258 297 4,100  Level New York TRACON
Fri 02:16:00 PM 40.7819 -74.0208 336° Northwest  Level Estimated
Fri 02:16:22 PM 40.1833 -74.4500 285° West 266 306 4,100  Level New York TRACON
Fri 02:17:00 PM 40.8377 -74.0535 336° Northwest  Level Estimated
Fri 02:17:22 PM 40.2333 -74.5167 315° West 272 313 4,100  Level New York TRACON
Fri 02:18:00 PM 40.8501 -74.0608 336° Northwest  Level Estimated
Fri 02:18:22 PM 40.3000 -74.5333 349° North 281 323 4,100  Level New York TRACON
Fri 02:19:00 PM 40.8501 -74.0608 65° Northeast  Level Estimated
Fri 02:19:22 PM 40.3833 -74.5500 351° North 278 320 4,100  Level New York TRACON
Fri 02:20:22 PM 40.4667 -74.5500 360° North 281 323 4,100  Level New York TRACON
Fri 02:21:22 PM 40.5333 -74.5500 360° North 277 319 4,100  Level New York TRACON
Fri 02:23:22 PM 40.7000 -74.5500 360° North 284 327 4,100 -67 Level New York TRACON
Fri 02:24:22 PM 40.7667 -74.5167 21° North 288 331 3,900 -526 Descending New York TRACON
Fri 02:25:16 PM 40.8333 -74.4833 21° North 274 315 3,100 -400 Descending New York TRACON
Fri 02:26:22 PM 40.9167 -74.4500 17° North 281 323 3,100  Level New York TRACON
Fri 02:27:16 PM 40.9833 -74.4167 21° North 292 336 3,100  Level New York TRACON
Fri 02:28:16 PM 41.0000 -74.3167 78° East 286 329 3,100 -400 Level New York TRACON
Fri 02:29:16 PM 41.0000 -74.2333 90° East 226 260 2,300 -500 Descending New York TRACON
Fri 02:30:16 PM 41.0000 -74.1500 90° East 227 261 2,100 -100 Descending New York TRACON
Fri 02:31:16 PM 41.0000 -74.0833 90° East 183 211 2,100  Level New York TRACON
Fri 02:32:16 PM 40.9667 -74.0500 143° Southeast 181 208 2,100 -350 Level New York TRACON
Fri 02:33:16 PM 40.9167 -74.0500 180° South 156 180 1,400 -750 Descending New York TRACON
Fri 02:34:16 PM 40.8833 -74.0500 180° South 118 136 600 -626 Descending New York TRACON
Fri 02:35:11 PM 40.8500 -74.0667 201° Southwest 124 143 200 -436 Descending New York TRACON
Fri 02:37:00 PM 40.8501 -74.0608 North  Level Estimated
Fri 02:44:00 PM 40.8501 -74.0608 180° South  Level Estimated
Fri 02:45:00 PM 40.8501 -74.0608 180° South  Level Estimated
Fri 02:46:00 PM 40.8501 -74.0608 180° South  Level Estimated
Fri 02:47:00 PM 40.8501 -74.0608 180° South  Level Estimated

Login

Don't have an account? Register now (free) for customized features, flight alerts, and more!